createdAt,value
2022-07-28T00:08:48.545Z,68.46
2022-07-28T00:18:25.522Z,69.09
2022-07-28T00:28:02.207Z,69.11
2022-07-28T00:37:39.913Z,70.16
2022-07-28T00:47:15.729Z,71.23
2022-07-28T00:56:52.567Z,72.07
2022-07-28T01:06:29.525Z,71.49
2022-07-28T01:16:06.733Z,72.74
2022-07-28T01:25:45.167Z,72.8
2022-07-28T01:35:20.021Z,73.38
2022-07-28T01:44:56.841Z,74.13
2022-07-28T01:54:33.582Z,74.79
2022-07-28T02:04:10.551Z,76.31
2022-07-28T02:13:47.429Z,75.38
2022-07-28T02:23:24.107Z,75.74
2022-07-28T02:33:01.314Z,76.55
2022-07-28T02:42:38.547Z,76.14
2022-07-28T02:52:15.224Z,77.74
2022-07-28T03:01:52.140Z,77.69
2022-07-28T03:11:28.991Z,77.2
2022-07-28T03:21:05.990Z,77.52
2022-07-28T03:30:43.033Z,77.8
2022-07-28T03:40:19.840Z,78.11
2022-07-28T03:49:57.292Z,78.38
2022-07-28T03:59:34.356Z,77.56
2022-07-28T04:09:11.935Z,76.48
2022-07-28T04:28:27.140Z,75.5
2022-07-28T04:38:04.993Z,73.18
2022-07-28T04:47:42.637Z,72.5
2022-07-28T04:57:20.218Z,71.58
2022-07-28T05:16:35.578Z,69.68
2022-07-28T05:26:13.488Z,68.32
2022-07-28T05:35:51.780Z,67.22
2022-07-28T05:45:30.149Z,65.37
2022-07-28T05:55:06.863Z,65.53
2022-07-28T06:04:44.603Z,65.5
2022-07-28T06:14:22.383Z,64.11
2022-07-28T06:23:59.641Z,63.77
2022-07-28T06:33:37.211Z,63.23
2022-07-28T06:43:15.105Z,60.58
2022-07-28T06:52:52.942Z,59.71
2022-07-28T07:02:30.663Z,58.99
2022-07-28T07:12:08.448Z,57.13
2022-07-28T07:31:23.977Z,53.9
2022-07-28T07:41:01.372Z,53.46
2022-07-28T07:50:38.766Z,52.31
2022-07-28T08:09:54.312Z,50.21
2022-07-28T08:19:32.232Z,48.92
2022-07-28T08:29:10.294Z,47.54
2022-07-28T08:38:48.356Z,46.24
2022-07-28T08:48:27.039Z,45.15
2022-07-28T08:58:05.932Z,42.82
2022-07-28T09:07:44.491Z,41.09
2022-07-28T09:17:22.975Z,40.6
2022-07-28T09:27:01.668Z,36.65
2022-07-28T09:36:47.895Z,34.18
2022-07-28T09:46:35.776Z,33.03
2022-07-28T09:56:18.877Z,32.27
2022-07-28T10:15:43.342Z,29.28
2022-07-28T10:25:23.865Z,26.87
2022-07-28T10:35:02.529Z,27.12
2022-07-28T10:44:44.366Z,25.88
2022-07-28T10:54:25.930Z,25.75
2022-07-28T11:04:00.800Z,26.15
2022-07-28T11:13:32.863Z,25.81
2022-07-28T11:23:17.058Z,24.47
2022-07-28T11:32:59.285Z,24.71
2022-07-28T11:42:39.626Z,22.54
2022-07-28T11:52:18.329Z,24.76
2022-07-28T12:11:37.300Z,22.16
2022-07-28T12:21:15.049Z,22.76
2022-07-28T12:30:54.218Z,23.89
2022-07-28T12:40:32.227Z,24.74
2022-07-28T12:50:07.242Z,26.15
2022-07-28T12:59:46.211Z,23.19
2022-07-28T13:09:24.171Z,23.42
2022-07-28T13:19:04.012Z,21.17
2022-07-28T13:28:43.274Z,23.09
2022-07-28T13:38:25.389Z,22.27
2022-07-28T13:47:57.696Z,19.99
2022-07-28T13:57:35.920Z,23.01
2022-07-28T14:07:14.502Z,22.86
2022-07-28T14:16:51.921Z,21.94
2022-07-28T14:26:37.951Z,20.35
2022-07-28T14:36:13.703Z,24.59
2022-07-28T14:45:50.548Z,23.84
2022-07-28T15:05:04.866Z,22.09
2022-07-28T15:14:38.975Z,23.72
2022-07-28T15:24:09.165Z,21.81
2022-07-28T15:33:47.987Z,23.88
2022-07-28T15:52:58.178Z,21.65
2022-07-28T16:02:35.098Z,23.08
2022-07-28T16:21:47.185Z,25.96
2022-07-28T16:31:20.399Z,26.28
2022-07-28T16:40:55.567Z,26.18
2022-07-28T16:50:31.756Z,26.99
2022-07-28T17:00:08.502Z,27.5
2022-07-28T17:19:22.441Z,27.89
2022-07-28T17:28:59.443Z,28.07
2022-07-28T17:38:36.015Z,28.59
2022-07-28T17:48:12.629Z,28.95
2022-07-28T17:57:49.549Z,29.53
2022-07-28T18:07:26.481Z,29.95
2022-07-28T18:17:02.532Z,30.5
2022-07-28T18:26:38.989Z,31.08
2022-07-28T18:36:15.885Z,31.71
2022-07-28T18:45:52.706Z,33.26
2022-07-28T18:55:29.210Z,33.38
2022-07-28T19:05:06.189Z,34.27
2022-07-28T19:14:43.156Z,35.61
2022-07-28T19:24:20.246Z,36.83
2022-07-28T19:33:56.365Z,37.24
2022-07-28T19:43:32.924Z,39
2022-07-28T19:53:11.165Z,39.96
2022-07-28T20:02:46.162Z,40.01
2022-07-28T20:12:22.419Z,41.07
2022-07-28T20:21:59.470Z,41.87
2022-07-28T20:31:36.839Z,42.84
2022-07-28T20:41:13.818Z,43.35
2022-07-28T20:50:50.983Z,43.86
2022-07-28T21:00:27.796Z,44.94
2022-07-28T21:10:04.604Z,45.08
2022-07-28T21:19:41.448Z,45.45
2022-07-28T21:38:55.638Z,47.5
2022-07-28T21:48:32.571Z,47.99
2022-07-28T21:58:10.121Z,47.61
2022-07-28T22:07:47.651Z,48.83
2022-07-28T22:17:24.968Z,48.56
2022-07-28T22:27:02.224Z,48.49
2022-07-28T22:36:39.659Z,48.87
2022-07-28T22:46:16.733Z,49.21
2022-07-28T22:55:54.465Z,48.48
2022-07-28T23:05:31.630Z,49.4
2022-07-28T23:15:08.896Z,48.75
2022-07-28T23:24:46.046Z,49.68
2022-07-28T23:34:23.748Z,49.16
2022-07-28T23:44:01.297Z,49.95
2022-07-28T23:53:38.495Z,50.21
